Time;durP1;ratioP1;P1;durP2;ratioP2;P2;SDS_P1;SDS_P2;PMS_P1;PMS_P2;Temp;Humidity;BMP_temperature;BMP_pressure;BME280_temperature;BME280_humidity;BME280_pressure;Samples;Min_cycle;Max_cycle;Signal;HPM_P1;HPM_P2
2022/01/04 00:01:19;;;;;;;0.90;0.73;;;;;;;7.84;100.00;94616.75;6281173;22;20167;-84
2022/01/04 00:03:44;;;;;;;1.27;0.83;;;;;;;7.89;100.00;94618.88;6281733;22;20152;-86
2022/01/04 00:06:09;;;;;;;0.80;0.73;;;;;;;7.85;100.00;94612.38;6307602;22;20172;-86
2022/01/04 00:08:35;;;;;;;0.83;0.80;;;;;;;7.84;100.00;94603.81;6281731;22;20179;-84
2022/01/04 00:11:18;;;;;;;0.87;0.83;;;;;;;7.93;100.00;94591.75;6281264;22;20175;-84
2022/01/04 00:13:44;;;;;;;0.87;0.80;;;;;;;7.92;100.00;94588.34;6284714;22;20234;-86
2022/01/04 00:16:10;;;;;;;0.93;0.80;;;;;;;7.94;100.00;94588.19;6281297;22;20175;-85
2022/01/04 00:18:37;;;;;;;1.17;0.77;;;;;;;7.94;100.00;94576.06;6279400;22;20156;-85
2022/01/04 00:21:02;;;;;;;0.73;0.70;;;;;;;7.90;100.00;94574.78;6255441;22;20563;-84
2022/01/04 00:23:28;;;;;;;1.40;0.83;;;;;;;7.88;100.00;94570.75;6305802;22;20155;-84
2022/01/04 00:25:53;;;;;;;2.50;0.90;;;;;;;7.94;100.00;94570.09;6280328;22;20674;-86
2022/01/04 00:28:18;;;;;;;1.50;1.00;;;;;;;7.92;100.00;94564.28;6306502;22;20421;-83
2022/01/04 00:30:44;;;;;;;1.23;1.00;;;;;;;7.87;100.00;94569.13;6306288;22;20156;-81
2022/01/04 00:33:11;;;;;;;0.97;0.77;;;;;;;7.84;100.00;94557.28;6279530;22;20208;-84
2022/01/04 00:35:37;;;;;;;0.83;0.70;;;;;;;7.88;100.00;94557.81;6306203;22;20155;-82
2022/01/04 00:38:02;;;;;;;1.53;0.70;;;;;;;7.80;100.00;94555.19;6280154;22;20164;-82
2022/01/04 00:40:28;;;;;;;1.00;0.80;;;;;;;7.90;100.00;94551.50;6305702;22;20148;-82
2022/01/04 00:42:55;;;;;;;0.73;0.73;;;;;;;7.72;100.00;94539.66;6305230;22;20151;-83
2022/01/04 00:45:21;;;;;;;0.70;0.70;;;;;;;7.63;100.00;94526.69;6280453;22;20206;-83
2022/01/04 00:50:22;;;;;;;0.70;0.50;;;;;;;7.62;100.00;94519.09;6306320;22;20139;-83
2022/01/04 00:52:48;;;;;;;1.10;0.80;;;;;;;7.58;100.00;94518.56;6304452;22;20147;-82
2022/01/04 00:55:13;;;;;;;0.77;0.60;;;;;;;7.56;100.00;94510.16;6305093;22;20205;-83
2022/01/04 00:57:40;;;;;;;1.60;0.80;;;;;;;7.52;100.00;94502.91;6305015;22;20167;-84
2022/01/04 01:00:09;;;;;;;0.60;0.60;;;;;;;7.55;100.00;94487.09;6279352;22;20163;-83
2022/01/04 01:02:34;;;;;;;0.70;0.57;;;;;;;7.67;100.00;94483.25;6304600;22;20155;-82
2022/01/04 01:05:00;;;;;;;3.17;0.70;;;;;;;7.61;100.00;94473.56;6279489;22;20159;-82
2022/01/04 01:07:25;;;;;;;0.83;0.70;;;;;;;7.66;100.00;94481.63;6278957;22;20186;-82
2022/01/04 01:10:08;;;;;;;0.60;0.60;;;;;;;7.67;100.00;94470.31;6279317;22;20168;-81
2022/01/04 01:12:33;;;;;;;1.33;0.70;;;;;;;7.64;100.00;94458.53;6283183;22;20144;-82
2022/01/04 01:14:59;;;;;;;1.37;0.80;;;;;;;7.73;100.00;94455.97;6304937;22;20205;-82
2022/01/04 01:17:24;;;;;;;0.83;0.70;;;;;;;7.60;100.00;94459.03;6304138;22;20494;-83
2022/01/04 01:19:50;;;;;;;1.43;0.60;;;;;;;7.64;100.00;94448.19;6278829;22;20160;-82
2022/01/04 01:22:15;;;;;;;0.87;0.80;;;;;;;7.62;100.00;94446.75;6278270;22;20152;-82
2022/01/04 01:24:40;;;;;;;0.73;0.70;;;;;;;7.62;100.00;94444.16;6278785;22;20666;-83
2022/01/04 01:27:06;;;;;;;0.80;0.70;;;;;;;7.64;100.00;94426.72;6304778;22;20715;-83
2022/01/04 01:29:31;;;;;;;1.33;0.80;;;;;;;7.62;100.00;94429.47;6304957;22;20163;-82
2022/01/04 01:31:56;;;;;;;1.13;0.80;;;;;;;7.64;100.00;94422.34;6278427;22;20174;-83
2022/01/04 01:34:23;;;;;;;2.47;0.90;;;;;;;7.70;100.00;94409.78;6278863;22;20217;-82
2022/01/04 01:36:49;;;;;;;1.73;0.80;;;;;;;7.66;100.00;94404.91;6279000;22;20508;-83
2022/01/04 01:39:14;;;;;;;0.90;0.90;;;;;;;7.53;100.00;94396.81;6304855;22;20152;-82
2022/01/04 01:41:39;;;;;;;1.43;0.83;;;;;;;7.52;100.00;94384.88;6304145;22;20152;-82
2022/01/04 01:44:04;;;;;;;0.80;0.60;;;;;;;7.53;100.00;94377.94;6278765;22;20159;-83
2022/01/04 01:46:30;;;;;;;0.87;0.70;;;;;;;7.57;100.00;94374.06;6278743;22;20632;-82
2022/01/04 01:48:55;;;;;;;0.70;0.70;;;;;;;7.48;100.00;94372.41;6304771;22;20238;-83
2022/01/04 01:51:23;;;;;;;1.77;0.80;;;;;;;7.51;100.00;94375.50;6303610;22;20612;-83
2022/01/04 01:53:49;;;;;;;2.43;0.90;;;;;;;7.51;100.00;94365.19;6278852;22;20469;-84
2022/01/04 01:56:14;;;;;;;0.73;0.73;;;;;;;7.47;100.00;94353.53;6304189;22;20183;-83
2022/01/04 01:58:39;;;;;;;1.70;0.73;;;;;;;7.51;100.00;94357.44;6278970;22;20250;-82
2022/01/04 02:01:04;;;;;;;1.33;0.90;;;;;;;7.48;100.00;94339.63;6279033;22;20550;-82
2022/01/04 02:03:30;;;;;;;2.87;1.03;;;;;;;7.51;100.00;94341.09;6277883;22;20152;-82
2022/01/04 02:05:55;;;;;;;1.73;1.60;;;;;;;7.50;100.00;94342.06;6278415;22;20616;-83
2022/01/04 02:08:20;;;;;;;1.33;0.83;;;;;;;7.51;100.00;94334.19;6278521;22;20233;-83
2022/01/04 02:10:46;;;;;;;2.33;0.90;;;;;;;7.57;100.00;94332.72;6278572;22;20222;-83
2022/01/04 02:13:12;;;;;;;1.17;1.00;;;;;;;7.57;100.00;94332.72;6277801;22;20559;-82
2022/01/04 02:15:37;;;;;;;1.33;0.80;;;;;;;7.63;100.00;94322.56;6278941;22;20175;-85
2022/01/04 02:18:03;;;;;;;1.47;1.20;;;;;;;7.61;100.00;94310.78;6303531;22;20604;-84
2022/01/04 02:20:29;;;;;;;1.00;0.90;;;;;;;7.61;100.00;94314.16;6253152;22;20216;-84
2022/01/04 02:22:55;;;;;;;2.93;1.00;;;;;;;7.66;100.00;94306.72;6301443;22;20156;-83
2022/01/04 02:25:20;;;;;;;1.20;1.03;;;;;;;7.59;100.00;94302.34;6306499;22;20199;-84
2022/01/04 02:27:46;;;;;;;1.30;1.13;;;;;;;7.59;100.00;94295.41;6293805;22;20557;-84
2022/01/04 02:30:15;;;;;;;1.37;1.27;;;;;;;7.59;100.00;94286.84;6285415;22;20196;-85
2022/01/04 02:32:41;;;;;;;1.27;1.17;;;;;;;7.58;100.00;94274.91;6283767;22;20180;-84
2022/01/04 02:35:07;;;;;;;1.70;1.17;;;;;;;7.53;100.00;94254.75;6284179;22;20156;-85
2022/01/04 02:37:36;;;;;;;1.10;1.00;;;;;;;7.54;100.00;94251.19;6310604;22;20183;-85
2022/01/04 02:40:02;;;;;;;1.37;1.20;;;;;;;7.58;100.00;94252.47;6284436;22;20540;-85
2022/01/04 02:42:28;;;;;;;1.73;1.33;;;;;;;7.55;100.00;94247.63;6283733;22;20179;-85
2022/01/04 02:44:53;;;;;;;1.63;1.20;;;;;;;7.57;100.00;94245.69;6284814;22;20612;-85
2022/01/04 02:47:19;;;;;;;3.23;1.40;;;;;;;7.46;100.00;94237.47;6309049;22;20523;-85
2022/01/04 02:49:44;;;;;;;2.37;1.40;;;;;;;7.47;100.00;94231.31;6283338;22;20240;-83
2022/01/04 02:52:10;;;;;;;3.00;1.13;;;;;;;7.45;100.00;94236.66;6282070;22;20160;-84
2022/01/04 02:54:35;;;;;;;2.13;1.73;;;;;;;7.49;100.00;94232.75;6282464;22;20156;-84
2022/01/04 02:57:01;;;;;;;1.80;1.37;;;;;;;7.42;100.00;94228.41;6282769;22;20243;-84
2022/01/04 02:59:26;;;;;;;2.67;1.70;;;;;;;7.42;100.00;94236.16;6282251;22;20159;-84
2022/01/04 03:01:52;;;;;;;2.03;1.50;;;;;;;7.38;100.00;94222.75;6281668;22;20597;-84
2022/01/04 03:04:17;;;;;;;2.27;1.60;;;;;;;7.40;100.00;94228.56;6307420;22;20147;-84
2022/01/04 03:06:43;;;;;;;1.80;1.40;;;;;;;7.39;100.00;94220.00;6281263;22;20179;-84
2022/01/04 03:09:08;;;;;;;2.50;1.70;;;;;;;7.31;100.00;94222.56;6281509;22;20174;-85
2022/01/04 03:11:34;;;;;;;2.10;1.60;;;;;;;7.34;100.00;94213.72;6306472;22;20162;-85
2022/01/04 03:14:00;;;;;;;1.50;1.40;;;;;;;7.31;100.00;94214.84;6307596;22;20148;-84
2022/01/04 03:16:26;;;;;;;3.03;1.37;;;;;;;7.39;100.00;94206.28;6280772;22;20183;-85
2022/01/04 03:19:06;;;;;;;1.33;1.10;;;;;;;7.41;100.00;94195.78;6280004;22;20159;-85
2022/01/04 03:21:34;;;;;;;1.80;1.30;;;;;;;7.35;100.00;94186.94;6283299;22;20608;-85
2022/01/04 03:24:00;;;;;;;1.33;1.23;;;;;;;7.41;100.00;94183.69;6280752;22;20151;-84
2022/01/04 03:26:26;;;;;;;2.03;1.17;;;;;;;7.37;100.00;94178.03;6280706;22;20198;-84
2022/01/04 03:28:51;;;;;;;1.93;1.20;;;;;;;7.38;100.00;94173.69;6280429;22;20497;-84
2022/01/04 03:31:17;;;;;;;1.87;1.00;;;;;;;7.43;100.00;94170.63;6279730;22;20163;-85
2022/01/04 03:33:42;;;;;;;1.33;1.13;;;;;;;7.43;100.00;94162.88;6280239;22;20179;-85
2022/01/04 03:36:07;;;;;;;1.57;1.20;;;;;;;7.46;100.00;94158.19;6279723;22;20179;-85
2022/01/04 03:38:33;;;;;;;3.10;1.30;;;;;;;7.46;100.00;94162.56;6280091;22;20151;-83
2022/01/04 03:40:58;;;;;;;2.00;1.33;;;;;;;7.47;100.00;94152.06;6279988;22;20156;-83
2022/01/04 03:43:24;;;;;;;2.97;1.30;;;;;;;7.49;100.00;94134.59;6279711;22;20156;-85
2022/01/04 03:45:49;;;;;;;1.23;1.10;;;;;;;7.48;100.00;94134.78;6279441;22;20209;-85
2022/01/04 03:48:15;;;;;;;2.50;1.00;;;;;;;7.53;100.00;94135.91;6305276;22;20175;-84
2022/01/04 03:50:40;;;;;;;1.30;1.20;;;;;;;7.54;100.00;94131.56;6305433;22;20156;-84
2022/01/04 03:53:06;;;;;;;2.23;1.13;;;;;;;7.56;100.00;94125.25;6278456;22;20159;-84
2022/01/04 03:55:32;;;;;;;1.37;0.97;;;;;;;7.56;100.00;94124.44;6279658;22;20152;-84
2022/01/04 03:57:57;;;;;;;2.30;1.20;;;;;;;7.62;100.00;94116.84;6282555;22;20172;-86
2022/01/04 04:00:22;;;;;;;1.27;1.03;;;;;;;7.56;100.00;94112.31;6280939;22;20164;-86
2022/01/04 04:02:47;;;;;;;0.73;0.73;;;;;;;7.57;100.00;94108.75;6280256;22;20162;-83
2022/01/04 04:05:15;;;;;;;1.30;1.00;;;;;;;7.55;100.00;94102.97;6280959;22;20164;-84
2022/01/04 04:07:40;;;;;;;1.37;1.10;;;;;;;7.54;100.00;94085.06;6306898;22;20251;-84
2022/01/04 04:10:06;;;;;;;1.70;1.00;;;;;;;7.54;100.00;94085.06;6281894;22;20156;-85
2022/01/04 04:12:31;;;;;;;2.03;1.00;;;;;;;7.52;100.00;94079.25;6281000;22;20167;-84
2022/01/04 04:14:58;;;;;;;1.33;1.07;;;;;;;7.59;100.00;94082.75;6281310;22;20160;-84
2022/01/04 04:17:24;;;;;;;1.40;1.10;;;;;;;7.56;100.00;94076.16;6283453;22;20493;-84
2022/01/04 04:19:49;;;;;;;1.10;1.00;;;;;;;7.56;100.00;94067.59;6309673;22;20163;-85
2022/01/04 04:22:14;;;;;;;2.77;1.17;;;;;;;7.58;100.00;94065.66;6307600;22;20148;-83
2022/01/04 04:24:41;;;;;;;1.00;0.90;;;;;;;7.57;100.00;94056.28;6280421;22;20493;-84
2022/01/04 04:27:06;;;;;;;1.00;0.80;;;;;;;7.57;100.00;94053.72;6307141;22;20175;-83
2022/01/04 04:29:33;;;;;;;0.83;0.80;;;;;;;7.53;100.00;94053.25;6306565;22;20164;-85
2022/01/04 04:31:58;;;;;;;0.97;0.87;;;;;;;7.52;100.00;94050.84;6279891;22;20513;-84
2022/01/04 04:34:23;;;;;;;2.03;0.83;;;;;;;7.60;100.00;94049.03;6280284;22;20179;-83
2022/01/04 04:36:48;;;;;;;1.47;1.03;;;;;;;7.55;100.00;94040.97;6280560;22;20183;-84
2022/01/04 04:39:14;;;;;;;3.47;2.10;;;;;;;7.57;100.00;94038.22;6280577;22;20156;-83
2022/01/04 04:41:39;;;;;;;6.10;2.30;;;;;;;7.59;100.00;94037.06;6305509;22;20758;-83
2022/01/04 04:44:04;;;;;;;7.67;2.70;;;;;;;7.63;100.00;94034.97;6306303;22;20163;-83
2022/01/04 04:46:30;;;;;;;7.90;3.10;;;;;;;7.68;100.00;94035.25;6307257;22;20445;-83
2022/01/04 04:48:55;;;;;;;3.83;2.00;;;;;;;7.69;100.00;94023.97;6280711;22;20164;-82
2022/01/04 04:51:20;;;;;;;1.23;0.90;;;;;;;7.71;100.00;94028.97;6280051;22;20497;-83
2022/01/04 04:53:46;;;;;;;0.53;0.50;;;;;;;7.71;100.00;94019.44;6280102;22;20156;-84
2022/01/04 04:56:11;;;;;;;0.63;0.60;;;;;;;7.64;100.00;94011.56;6279905;22;20636;-83
2022/01/04 04:58:36;;;;;;;1.27;0.70;;;;;;;7.67;100.00;94013.78;6280923;22;20197;-84
2022/01/04 05:01:02;;;;;;;0.80;0.70;;;;;;;7.62;100.00;94010.91;6281152;22;20492;-82
2022/01/04 05:03:27;;;;;;;0.63;0.60;;;;;;;7.61;100.00;94003.34;6280243;22;20190;-84
2022/01/04 05:05:52;;;;;;;0.60;0.60;;;;;;;7.62;100.00;94002.38;6281108;22;20625;-83
2022/01/04 05:08:17;;;;;;;1.90;0.93;;;;;;;7.58;100.00;93994.13;6280167;22;20176;-83
2022/01/04 05:10:43;;;;;;;1.27;0.90;;;;;;;7.63;100.00;93985.88;6305921;22;20155;-84
2022/01/04 05:13:08;;;;;;;0.70;0.70;;;;;;;7.58;100.00;93985.56;6280388;22;20159;-83
2022/01/04 05:15:34;;;;;;;0.60;0.60;;;;;;;7.64;100.00;93977.16;6281178;22;20569;-82
2022/01/04 05:17:59;;;;;;;0.80;0.60;;;;;;;7.66;100.00;93970.03;6280115;22;20171;-82
2022/01/04 05:20:24;;;;;;;0.60;0.60;;;;;;;7.67;100.00;93969.88;6281213;22;20155;-84
2022/01/04 05:22:49;;;;;;;0.50;0.50;;;;;;;7.73;100.00;93954.69;6280669;22;20544;-83
2022/01/04 05:25:15;;;;;;;1.10;0.50;;;;;;;7.71;100.00;93951.47;6280059;22;20152;-84
2022/01/04 05:27:40;;;;;;;0.70;0.70;;;;;;;7.75;100.00;93944.97;6280240;22;20617;-84
2022/01/04 05:30:06;;;;;;;0.50;0.50;;;;;;;7.76;100.00;93949.16;6306718;22;20618;-83
2022/01/04 05:32:34;;;;;;;0.40;0.40;;;;;;;7.84;100.00;93941.38;6311203;22;20160;-83
2022/01/04 05:34:59;;;;;;;0.50;0.50;;;;;;;7.83;100.00;93943.16;6334833;22;20170;-83
2022/01/04 05:37:24;;;;;;;0.67;0.53;;;;;;;7.83;100.00;93937.19;6308164;22;20191;-82
2022/01/04 05:39:50;;;;;;;0.63;0.63;;;;;;;7.80;100.00;93940.91;6312656;22;20190;-85
2022/01/04 05:42:15;;;;;;;0.40;0.40;;;;;;;7.83;100.00;93937.19;6285790;22;20159;-85
2022/01/04 05:44:40;;;;;;;0.97;0.40;;;;;;;7.84;100.00;93936.19;6311678;22;20151;-85
2022/01/04 05:47:06;;;;;;;0.57;0.50;;;;;;;7.81;100.00;93932.19;6312317;22;20609;-86
2022/01/04 05:49:32;;;;;;;0.40;0.40;;;;;;;7.85;100.00;93930.84;6312135;22;20227;-85
2022/01/04 05:51:57;;;;;;;0.93;0.40;;;;;;;7.83;100.00;93925.06;6284161;22;20167;-85
2022/01/04 05:54:22;;;;;;;0.60;0.50;;;;;;;7.93;100.00;93911.91;6285592;22;20216;-85
2022/01/04 05:56:47;;;;;;;2.33;0.40;;;;;;;7.88;100.00;93906.47;6285356;22;20474;-83
2022/01/04 05:59:13;;;;;;;0.40;0.40;;;;;;;7.88;100.00;93912.44;6285602;22;20171;-84
2022/01/04 06:01:38;;;;;;;0.80;0.60;;;;;;;7.89;100.00;93902.91;6309915;22;20144;-84
2022/01/04 06:04:04;;;;;;;0.40;0.40;;;;;;;7.93;100.00;93893.81;6284067;22;20632;-84
2022/01/04 06:06:29;;;;;;;2.30;0.50;;;;;;;7.89;100.00;93888.22;6284435;22;20171;-85
2022/01/04 06:08:55;;;;;;;0.83;0.40;;;;;;;7.93;100.00;93899.00;6283683;22;20176;-85
2022/01/04 06:11:55;;;;;;;1.33;0.33;;;;;;;7.97;100.00;93889.94;6282998;22;20164;-85
2022/01/04 06:17:05;;;;;;;0.60;0.50;;;;;;;8.02;100.00;93866.13;6307856;22;20710;-84
2022/01/04 06:19:30;;;;;;;0.90;0.60;;;;;;;7.95;100.00;93872.03;6283400;22;20152;-85
2022/01/04 06:21:56;;;;;;;1.07;0.40;;;;;;;8.00;100.00;93868.91;6281775;22;20231;-85
2022/01/04 06:24:21;;;;;;;1.20;0.80;;;;;;;7.92;100.00;93858.63;6282872;22;20148;-85
2022/01/04 06:26:46;;;;;;;1.07;0.80;;;;;;;8.00;100.00;93857.75;6282626;22;20176;-84
2022/01/04 06:29:12;;;;;;;0.80;0.70;;;;;;;7.94;100.00;93864.41;6282951;22;20217;-84
2022/01/04 06:31:41;;;;;;;0.40;0.40;;;;;;;7.93;100.00;93863.63;6281820;22;20234;-85
2022/01/04 06:34:06;;;;;;;0.40;0.30;;;;;;;7.96;100.00;93849.56;6283008;22;20156;-85
2022/01/04 06:36:32;;;;;;;0.50;0.37;;;;;;;8.04;100.00;93836.56;6282179;22;20175;-84
2022/01/04 06:38:57;;;;;;;1.30;0.57;;;;;;;8.06;100.00;93842.38;6282190;22;20176;-84
2022/01/04 06:41:22;;;;;;;0.87;0.47;;;;;;;8.08;100.00;93843.00;6282093;22;20640;-85
2022/01/04 06:43:48;;;;;;;1.43;0.50;;;;;;;8.11;100.00;93847.81;6307576;22;20179;-86
2022/01/04 06:46:13;;;;;;;0.50;0.50;;;;;;;8.17;100.00;93835.97;6282209;22;20176;-85
2022/01/04 06:48:40;;;;;;;1.23;0.80;;;;;;;8.23;100.00;93838.69;6308118;22;20217;-85
2022/01/04 06:51:05;;;;;;;0.87;0.70;;;;;;;8.26;100.00;93831.53;6279259;22;20494;-81
2022/01/04 06:53:30;;;;;;;0.90;0.70;;;;;;;8.31;100.00;93824.88;6307068;22;20163;-85
2022/01/04 06:55:56;;;;;;;0.87;0.73;;;;;;;8.31;100.00;93818.91;6282954;22;20163;-85
2022/01/04 06:58:21;;;;;;;0.70;0.60;;;;;;;8.39;100.00;93816.25;6282440;22;20163;-84
2022/01/04 07:00:46;;;;;;;2.30;0.50;;;;;;;8.39;100.00;93811.06;6281871;22;20160;-84
2022/01/04 07:03:12;;;;;;;0.50;0.50;;;;;;;8.38;100.00;93812.84;6282849;22;20164;-86
2022/01/04 07:05:50;;;;;;;0.40;0.40;;;;;;;8.48;100.00;93804.84;6281954;22;20199;-87
2022/01/04 07:11:47;;;;;;;;;;;;;;;;;;;;;
2022/01/04 07:14:59;;;;;;;0.80;0.70;;;;;;;8.59;100.00;93801.84;6191516;23;20242;-85
2022/01/04 07:17:50;;;;;;;2.03;0.70;;;;;;;8.56;100.00;93803.94;6185585;23;20178;-84
2022/01/04 07:20:23;;;;;;;0.70;0.70;;;;;;;8.54;100.00;93804.13;6189095;23;20185;-84
2022/01/04 07:22:57;;;;;;;0.93;0.70;;;;;;;8.54;100.00;93801.53;6164348;23;20173;-84
2022/01/04 07:25:25;;;;;;;0.67;0.60;;;;;;;8.55;100.00;93799.75;6166047;23;20158;-86
2022/01/04 07:27:51;;;;;;;0.43;0.43;;;;;;;8.67;100.00;93793.97;6166112;23;20189;-85
2022/01/04 07:33:45;;;;;;;0.63;0.40;;;;;;;8.76;100.00;93782.56;6194633;23;20232;-86
2022/01/04 07:36:30;;;;;;;;;;;;;;;;;;;;;
2022/01/04 07:39:53;;;;;;;;;;;;;;;;;;;;;
2022/01/04 07:42:32;;;;;;;0.83;0.60;;;;;;;8.79;100.00;93782.19;6209290;23;20241;-85
2022/01/04 07:48:55;;;;;;;;;;;;;;;;;;;;;
2022/01/04 07:55:23;;;;;;;0.67;0.43;;;;;;;9.03;100.00;93747.44;6097787;23;20164;-85
2022/01/04 07:58:33;;;;;;;;;;;;;;;;;;;;;
2022/01/04 08:01:13;;;;;;;0.50;0.40;;;;;;;9.19;100.00;93761.13;6012047;23;20246;-86
2022/01/04 08:03:47;;;;;;;0.50;0.50;;;;;;;9.20;100.00;93758.38;5967230;23;20182;-84
2022/01/04 08:06:45;;;;;;;0.67;0.60;;;;;;;9.16;100.00;93757.13;5987639;23;20183;-85
2022/01/04 08:10:00;;;;;;;0.40;0.40;;;;;;;9.30;100.00;93756.31;5963875;23;20364;-85
2022/01/04 08:13:32;;;;;;;1.17;0.60;;;;;;;9.34;100.00;93749.75;5980489;24;20317;-85
2022/01/04 08:16:33;;;;;;;0.60;0.60;;;;;;;9.29;100.00;93744.34;5870934;24;20169;-85
2022/01/04 08:18:58;;;;;;;1.07;0.80;;;;;;;9.23;100.00;93742.47;5821444;24;20253;-81
2022/01/04 08:21:24;;;;;;;0.60;0.60;;;;;;;9.32;100.00;93727.63;5843507;24;20194;-82
2022/01/04 08:30:05;;;;;;;0.80;0.80;;;;;;;9.40;100.00;93737.88;5818338;24;20206;-80
2022/01/04 08:33:19;;;;;;;1.90;0.90;;;;;;;9.43;100.00;93726.31;5857156;24;20684;-81
2022/01/04 08:41:36;;;;;;;0.90;0.73;;;;;;;9.56;100.00;93719.50;6306570;22;20197;-80
2022/01/04 08:44:33;;;;;;;0.60;0.60;;;;;;;9.61;100.00;93703.38;6286343;22;20168;-84
2022/01/04 08:56:26;;;;;;;0.87;0.87;;;;;;;9.63;100.00;93706.59;6245748;22;20209;-83
2022/01/04 09:24:47;;;;;;;0.73;0.70;;;;;;;9.58;100.00;93668.28;5834206;24;20584;-81
2022/01/04 10:20:03;;;;;;;1.13;0.70;;;;;;;9.93;100.00;93634.63;6164315;23;20484;-85
2022/01/04 10:22:47;;;;;;;1.03;0.93;;;;;;;9.91;100.00;93628.84;6163508;23;20159;-81
2022/01/04 10:26:40;;;;;;;;;;;;;;;;;;;;;
2022/01/04 10:29:26;;;;;;;1.13;0.93;;;;;;;9.91;100.00;93608.91;6019004;23;20232;-82
2022/01/04 10:32:57;;;;;;;1.30;0.70;;;;;;;9.88;100.00;93611.84;6020369;23;20259;-82
2022/01/04 10:55:23;;;;;;;1.27;1.10;;;;;;;9.83;100.00;93609.03;6188013;22;20206;-82
2022/01/04 10:57:54;;;;;;;1.27;1.17;;;;;;;9.89;100.00;93610.88;6161584;23;20629;-82
2022/01/04 11:00:23;;;;;;;1.00;0.90;;;;;;;9.88;100.00;93617.03;6161599;23;20601;-82
2022/01/04 11:02:48;;;;;;;1.60;1.23;;;;;;;9.89;100.00;93607.47;6160535;23;20495;-81
2022/01/04 11:05:23;;;;;;;2.80;1.67;;;;;;;9.84;100.00;93618.44;6161419;23;20151;-83
2022/01/04 11:08:17;;;;;;;2.40;1.40;;;;;;;9.87;100.00;93602.47;6137158;23;20176;-80
2022/01/04 11:11:01;;;;;;;1.33;1.20;;;;;;;9.87;100.00;93599.88;6163345;23;20143;-80
2022/01/04 11:13:47;;;;;;;2.73;1.83;;;;;;;9.83;100.00;93614.22;6160765;23;20175;-81
2022/01/04 11:16:18;;;;;;;2.87;1.17;;;;;;;9.79;100.00;93607.81;6138723;23;20196;-82
2022/01/04 11:18:52;;;;;;;1.50;1.10;;;;;;;9.79;100.00;93613.00;6163215;23;20166;-80
2022/01/04 11:21:24;;;;;;;1.53;1.30;;;;;;;9.82;100.00;93609.25;6137471;23;20165;-81
2022/01/04 11:23:50;;;;;;;2.50;1.40;;;;;;;9.81;100.00;93595.47;6135075;23;20241;-82
2022/01/04 11:26:15;;;;;;;1.77;1.30;;;;;;;9.86;100.00;93590.50;6159561;23;20186;-80
2022/01/04 11:28:44;;;;;;;2.47;1.30;;;;;;;9.80;100.00;93583.50;6159790;23;20537;-79
2022/01/04 11:58:21;;;;;;;3.63;1.70;;;;;;;9.77;100.00;93594.25;6186749;23;20158;-80
2022/01/04 12:01:01;;;;;;;1.77;1.63;;;;;;;9.71;100.00;93589.00;6160248;23;20718;-80
2022/01/04 12:03:37;;;;;;;5.43;2.03;;;;;;;9.75;100.00;93583.28;6134761;23;20150;-80
2022/01/04 12:06:05;;;;;;;2.87;1.80;;;;;;;9.70;100.00;93596.00;6160258;23;20229;-81
2022/01/04 12:08:36;;;;;;;2.77;2.10;;;;;;;9.74;100.00;93593.84;6161005;23;20209;-79
2022/01/04 12:11:02;;;;;;;2.00;1.80;;;;;;;9.75;100.00;93590.25;6180580;23;20173;-78
2022/01/04 12:13:51;;;;;;;2.23;1.83;;;;;;;9.69;100.00;93578.03;6155742;23;20671;-79
2022/01/04 12:16:32;;;;;;;2.10;1.60;;;;;;;9.64;100.00;93587.19;6148680;23;20190;-80
2022/01/04 12:18:58;;;;;;;2.77;1.97;;;;;;;9.57;100.00;93577.78;6160868;23;20182;-80
2022/01/04 12:21:38;;;;;;;3.00;1.50;;;;;;;9.62;100.00;93572.81;6136124;23;20161;-80
2022/01/04 12:24:04;;;;;;;3.87;2.23;;;;;;;9.51;100.00;93571.53;6136645;23;20494;-80
2022/01/04 12:35:06;;;;;;;1.80;1.30;;;;;;;9.25;100.00;93579.91;6217580;23;20185;-79
2022/01/04 12:44:42;;;;;;;2.40;1.20;;;;;;;9.30;100.00;93594.91;5952298;24;20166;-81
2022/01/04 13:01:37;;;;;;;1.73;1.37;;;;;;;9.34;100.00;93635.78;5843893;24;20181;-79
2022/01/04 13:07:52;;;;;;;2.87;1.70;;;;;;;9.40;100.00;93629.06;6142952;22;20213;-80
2022/01/04 13:10:17;;;;;;;1.83;1.37;;;;;;;9.29;100.00;93620.03;6135055;23;20524;-78
2022/01/04 13:12:44;;;;;;;2.00;1.10;;;;;;;9.33;100.00;93629.00;6134406;23;20165;-78
2022/01/04 13:15:13;;;;;;;1.27;1.00;;;;;;;9.34;100.00;93630.59;6159181;23;20167;-78
2022/01/04 13:35:47;;;;;;;1.37;1.27;;;;;;;9.33;100.00;93660.09;6168831;23;20198;-82
2022/01/04 15:06:21;;;;;;;1.73;1.60;;;;;;;4.29;100.00;93876.31;6094326;23;20191;-82
2022/01/04 15:08:46;;;;;;;1.23;1.10;;;;;;;4.16;100.00;93879.28;6060040;23;20261;-82
2022/01/04 15:11:11;;;;;;;2.07;1.40;;;;;;;4.08;100.00;93892.06;6042207;23;20167;-81
2022/01/04 15:13:36;;;;;;;1.57;1.00;;;;;;;4.01;100.00;93885.91;6042502;23;20251;-80
2022/01/04 15:16:02;;;;;;;1.90;1.60;;;;;;;3.84;100.00;93887.53;6041764;23;20253;-81
2022/01/04 15:18:27;;;;;;;1.77;1.30;;;;;;;3.85;100.00;93899.41;6042218;23;20722;-84
2022/01/04 15:20:52;;;;;;;1.63;1.30;;;;;;;3.89;100.00;93905.88;6037237;23;20165;-81
2022/01/04 15:23:18;;;;;;;2.00;1.90;;;;;;;3.93;100.00;93904.63;6037344;23;20158;-82
2022/01/04 15:25:43;;;;;;;1.87;1.43;;;;;;;3.82;100.00;93907.41;6038725;23;20163;-81
2022/01/04 16:02:56;;;;;;;1.50;1.03;;;;;;;3.65;100.00;93968.88;6097531;23;20271;-86
2022/01/04 16:09:30;;;;;;;;;;;;;;;;;;;;;
2022/01/04 16:21:45;;;;;;;2.00;1.60;;;;;;;3.53;100.00;93985.41;6101949;23;20171;-85
2022/01/04 16:24:23;;;;;;;2.00;1.27;;;;;;;3.47;100.00;93980.84;6076313;23;20161;-85
2022/01/04 16:30:14;;;;;;;2.43;2.10;;;;;;;3.33;100.00;93996.72;6043024;23;20166;-84
2022/01/04 16:32:44;;;;;;;2.13;1.20;;;;;;;3.20;100.00;93993.66;6041781;23;20198;-85
2022/01/04 16:35:32;;;;;;;3.73;3.43;;;;;;;3.35;100.00;93995.63;6036729;23;20177;-84
2022/01/04 16:38:03;;;;;;;3.60;3.40;;;;;;;3.15;100.00;93996.66;6049387;23;20183;-82
2022/01/04 16:40:33;;;;;;;1.60;1.50;;;;;;;3.22;100.00;93994.34;6072097;23;20169;-82
2022/01/04 16:43:04;;;;;;;4.57;1.83;;;;;;;3.26;100.00;94003.34;6069890;23;20172;-81
2022/01/04 16:45:48;;;;;;;3.83;3.53;;;;;;;3.20;100.00;93989.34;6048297;23;20159;-85
2022/01/04 16:48:21;;;;;;;10.80;9.83;;;;;;;3.13;100.00;93995.97;6073861;23;20172;-84
2022/01/04 16:50:58;;;;;;;7.33;6.63;;;;;;;3.00;100.00;93991.16;6052346;23;20142;-84
2022/01/04 16:56:36;;;;;;;3.40;2.50;;;;;;;3.05;100.00;93988.19;6076944;23;20190;-82
2022/01/04 17:02:05;;;;;;;5.03;2.50;;;;;;;3.16;100.00;93997.44;6057362;23;20196;-81
2022/01/04 17:04:40;;;;;;;3.30;1.40;;;;;;;3.09;100.00;93986.94;6075786;23;20158;-83
2022/01/04 17:07:18;;;;;;;1.53;1.03;;;;;;;2.99;100.00;93986.97;6118084;23;20179;-83
2022/01/04 17:09:52;;;;;;;1.73;1.13;;;;;;;3.00;100.00;93980.09;6142037;23;20250;-83
2022/01/04 17:12:37;;;;;;;1.47;1.37;;;;;;;3.05;100.00;93988.19;6137707;23;20601;-84
2022/01/04 17:18:42;;;;;;;1.40;1.20;;;;;;;3.09;100.00;93979.25;6077664;23;20176;-83
2022/01/04 17:21:21;;;;;;;1.50;1.20;;;;;;;3.16;100.00;93985.44;6138145;23;20164;-83
2022/01/04 17:24:15;;;;;;;1.23;0.90;;;;;;;3.15;100.00;93980.44;6117741;23;20159;-85
2022/01/04 17:26:54;;;;;;;1.00;0.90;;;;;;;3.15;100.00;93986.38;6168051;23;20227;-83
2022/01/04 17:29:28;;;;;;;3.20;2.90;;;;;;;2.98;100.00;93987.13;6141714;23;20159;-82
2022/01/04 17:35:06;;;;;;;1.70;1.40;;;;;;;3.04;100.00;93992.50;6145989;23;20144;-84
2022/01/04 17:37:47;;;;;;;1.80;1.60;;;;;;;3.03;100.00;93992.66;6119450;23;20186;-83
2022/01/04 17:40:25;;;;;;;1.70;1.60;;;;;;;2.88;100.00;93994.84;6117404;23;20158;-84
2022/01/04 17:43:12;;;;;;;1.50;1.40;;;;;;;2.98;100.00;93995.63;6116454;23;20170;-82
2022/01/04 17:45:43;;;;;;;3.17;2.87;;;;;;;3.09;100.00;94005.72;6144736;23;20328;-84
2022/01/04 17:48:19;;;;;;;4.87;4.37;;;;;;;3.17;100.00;94017.03;6116622;23;20153;-85
2022/01/04 17:50:48;;;;;;;2.20;1.80;;;;;;;3.18;100.00;94014.34;6143416;23;20162;-83
2022/01/04 17:53:22;;;;;;;3.37;2.10;;;;;;;3.07;100.00;94012.72;6116455;23;20166;-83
2022/01/04 17:55:55;;;;;;;2.10;2.00;;;;;;;3.09;100.00;94012.59;6117968;23;21003;-83
2022/01/04 17:58:32;;;;;;;1.90;1.80;;;;;;;3.17;100.00;94014.47;6117390;23;20598;-81
2022/01/04 18:01:01;;;;;;;2.43;1.77;;;;;;;3.09;100.00;94007.47;6116082;23;20605;-82
2022/01/04 18:03:27;;;;;;;1.50;1.20;;;;;;;3.05;100.00;94009.50;6138558;23;20153;-81
2022/01/04 18:05:55;;;;;;;1.60;1.50;;;;;;;2.98;100.00;94015.31;6135157;23;20211;-82
2022/01/04 18:08:21;;;;;;;1.00;0.87;;;;;;;2.91;100.00;94009.13;6115532;23;20187;-81